createdAt,value
2022-12-02T05:14:01.426Z,15.60
2022-12-02T05:17:04.592Z,16.00
2022-12-02T05:20:07.883Z,17.02
2022-12-02T05:23:13.740Z,16.08
2022-12-02T05:26:16.267Z,15.80
2022-12-02T05:29:19.030Z,15.80
2022-12-02T05:32:21.551Z,16.10
2022-12-02T05:35:24.418Z,16.30
2022-12-02T05:38:27.003Z,15.18
2022-12-02T05:41:29.702Z,16.08
2022-12-02T05:44:51.265Z,16.23
2022-12-02T05:47:55.031Z,16.35
2022-12-02T05:50:57.856Z,16.10
2022-12-02T05:54:00.745Z,15.45
2022-12-02T05:57:07.643Z,16.00
2022-12-02T06:00:16.253Z,16.12
2022-12-02T06:03:21.260Z,15.55
2022-12-02T06:06:29.444Z,16.83
2022-12-02T06:09:33.670Z,15.35
2022-12-02T06:12:36.574Z,17.23
2022-12-02T06:15:39.359Z,16.05
2022-12-02T06:18:42.581Z,15.30
2022-12-02T06:21:45.452Z,15.98
2022-12-02T06:24:48.062Z,16.92
2022-12-02T06:27:53.005Z,16.25
2022-12-02T06:31:01.552Z,16.15
2022-12-02T06:34:28.063Z,16.37
2022-12-02T06:37:33.753Z,15.73
2022-12-02T06:40:37.428Z,16.45
2022-12-02T06:43:39.900Z,16.40
2022-12-02T06:46:43.724Z,15.95
2022-12-02T06:49:46.616Z,16.33
2022-12-02T06:52:49.515Z,16.55
2022-12-02T06:56:01.964Z,16.80
2022-12-02T06:59:06.304Z,16.92
2022-12-02T07:02:25.678Z,16.40
2022-12-02T07:05:28.545Z,17.80
2022-12-02T07:08:31.792Z,16.52
2022-12-02T07:11:55.672Z,17.42
2022-12-02T07:15:02.521Z,17.40
2022-12-02T07:18:18.679Z,16.40
2022-12-02T07:21:21.274Z,17.10
2022-12-02T07:24:25.388Z,17.45
2022-12-02T07:27:32.047Z,16.52
2022-12-02T07:30:41.925Z,17.00
2022-12-02T07:33:44.643Z,16.30
2022-12-02T07:36:47.586Z,16.42
2022-12-02T07:39:50.088Z,16.55
2022-12-02T07:42:52.933Z,17.17
2022-12-02T07:45:55.358Z,17.35
2022-12-02T07:48:58.176Z,17.08
2022-12-02T07:52:01.590Z,17.08
2022-12-02T07:55:04.780Z,17.35
2022-12-02T07:58:07.269Z,16.65
2022-12-02T08:01:12.260Z,16.00
2022-12-02T08:04:18.864Z,17.30
2022-12-02T08:07:21.363Z,17.52
2022-12-02T08:10:24.234Z,17.10
2022-12-02T08:13:26.780Z,17.60
2022-12-02T08:16:29.640Z,18.30
2022-12-02T08:19:32.345Z,16.67
2022-12-02T08:22:35.693Z,18.35
2022-12-02T08:25:38.265Z,16.67
2022-12-02T08:28:41.873Z,18.17
2022-12-02T08:31:44.541Z,18.73
2022-12-02T08:34:47.344Z,18.12
2022-12-02T08:37:49.981Z,17.67
2022-12-02T08:40:52.750Z,17.87
2022-12-02T08:43:55.268Z,17.90
2022-12-02T08:46:58.203Z,17.33
2022-12-02T08:50:00.742Z,17.40
2022-12-02T08:53:03.918Z,18.80
2022-12-02T08:56:06.525Z,18.48
2022-12-02T08:59:09.923Z,17.50
2022-12-02T09:02:12.724Z,17.92
2022-12-02T09:05:15.840Z,17.12
2022-12-02T09:08:18.356Z,17.10
2022-12-02T09:11:21.058Z,18.33
2022-12-02T09:14:23.596Z,17.40
2022-12-02T09:17:26.437Z,18.12
2022-12-02T09:20:28.912Z,18.08
2022-12-02T09:23:31.747Z,18.52
2022-12-02T09:26:35.108Z,18.67
2022-12-02T09:29:37.864Z,18.87
2022-12-02T09:32:40.501Z,17.62
2022-12-02T09:35:43.325Z,18.45
2022-12-02T09:38:46.024Z,18.35
2022-12-02T09:41:48.734Z,18.05
2022-12-02T09:44:52.616Z,17.12
2022-12-02T09:47:55.711Z,16.52
2022-12-02T09:50:59.704Z,16.65
2022-12-02T09:54:03.857Z,16.42
2022-12-02T09:57:11.452Z,15.85
2022-12-02T10:00:18.138Z,16.15
2022-12-02T10:03:28.997Z,16.50
2022-12-02T10:06:31.588Z,16.58
2022-12-02T10:09:35.192Z,17.33
2022-12-02T10:12:37.839Z,17.00
2022-12-02T10:15:40.709Z,16.50
2022-12-02T10:18:43.549Z,16.40
2022-12-02T10:21:46.784Z,16.67
2022-12-02T10:24:49.618Z,16.27
2022-12-02T10:27:52.571Z,16.27
2022-12-02T10:31:19.819Z,16.15
2022-12-02T10:34:23.505Z,17.35
2022-12-02T10:37:27.239Z,16.45
2022-12-02T10:40:30.277Z,16.65
2022-12-02T10:43:33.876Z,17.70
2022-12-02T10:46:36.752Z,15.10
2022-12-02T10:49:44.373Z,17.08
2022-12-02T10:52:50.405Z,15.73
2022-12-02T10:55:52.923Z,17.05
2022-12-02T10:58:56.747Z,16.17
2022-12-02T11:01:59.920Z,16.65
2022-12-02T11:05:15.612Z,16.17
2022-12-02T11:08:28.967Z,16.80
2022-12-02T11:11:31.671Z,15.88
2022-12-02T11:14:43.025Z,16.75
2022-12-02T11:17:51.248Z,17.27
2022-12-02T11:21:13.681Z,16.83
2022-12-02T11:24:22.891Z,16.60
2022-12-02T11:27:25.420Z,16.23
2022-12-02T11:30:28.492Z,17.70
2022-12-02T11:33:53.554Z,17.00
2022-12-02T11:37:26.428Z,17.55
2022-12-02T11:40:32.306Z,16.70
2022-12-02T11:44:09.350Z,17.65
2022-12-02T11:47:55.528Z,17.27
2022-12-02T11:50:58.276Z,16.95
2022-12-02T11:54:01.280Z,18.20
2022-12-02T11:57:05.335Z,17.30
2022-12-02T12:00:26.903Z,17.73
2022-12-02T12:03:30.285Z,16.90
2022-12-02T12:06:35.411Z,18.23
2022-12-02T12:09:38.650Z,16.70
2022-12-02T12:13:13.949Z,16.95
2022-12-02T12:16:24.159Z,17.58
2022-12-02T12:19:27.088Z,16.80
2022-12-02T12:22:31.352Z,17.05
2022-12-02T12:25:44.414Z,18.58
2022-12-02T12:28:47.141Z,17.73
2022-12-02T12:31:49.750Z,17.85
2022-12-02T12:34:52.750Z,18.12
2022-12-02T12:37:55.372Z,17.90
2022-12-02T12:40:58.567Z,18.90
2022-12-02T12:44:01.100Z,18.23
2022-12-02T12:47:05.947Z,17.95
2022-12-02T12:50:09.990Z,17.58
2022-12-02T12:53:12.841Z,18.60
2022-12-02T12:56:15.379Z,18.25
2022-12-02T12:59:18.161Z,18.15
2022-12-02T13:02:21.166Z,17.80
2022-12-02T13:05:23.903Z,17.73
2022-12-02T13:08:26.597Z,16.33
2022-12-02T13:11:29.430Z,16.67
2022-12-02T13:14:31.947Z,17.35
2022-12-02T13:17:34.656Z,17.10
2022-12-02T13:20:37.831Z,16.77
2022-12-02T13:23:40.938Z,17.10
2022-12-02T13:26:43.397Z,17.20
2022-12-02T13:29:48.533Z,16.92
2022-12-02T13:32:52.855Z,16.45
2022-12-02T13:35:55.656Z,17.92
2022-12-02T13:39:04.288Z,16.98
2022-12-02T13:42:09.089Z,17.52
2022-12-02T13:45:12.664Z,17.35
2022-12-02T13:48:15.558Z,18.08
2022-12-02T13:51:18.756Z,17.83
2022-12-02T13:54:21.939Z,17.25
2022-12-02T13:57:24.718Z,18.73
2022-12-02T14:00:27.751Z,18.48
2022-12-02T14:03:30.633Z,17.80
2022-12-02T14:06:33.439Z,18.77
2022-12-02T14:09:36.273Z,18.87
2022-12-02T14:12:39.059Z,19.15
2022-12-02T14:15:41.845Z,18.52
2022-12-02T14:18:44.287Z,19.90
2022-12-02T14:21:49.316Z,18.05
2022-12-02T14:24:51.985Z,18.77
2022-12-02T14:27:55.364Z,19.52
2022-12-02T14:30:58.080Z,19.37
2022-12-02T14:34:16.204Z,20.40
2022-12-02T14:37:18.647Z,19.87
2022-12-02T14:40:21.662Z,19.08
2022-12-02T14:43:24.180Z,19.15
2022-12-02T14:46:30.404Z,20.23
2022-12-02T14:49:41.409Z,19.65
2022-12-02T14:52:44.901Z,20.30
2022-12-02T14:55:48.085Z,19.92
2022-12-02T14:58:50.886Z,20.52
2022-12-02T15:01:53.637Z,21.02
2022-12-02T15:04:56.385Z,22.37
2022-12-02T15:07:58.859Z,20.48
2022-12-02T15:11:01.918Z,22.00
2022-12-02T15:14:04.519Z,20.37
2022-12-02T15:17:07.310Z,21.55
2022-12-02T15:20:11.024Z,21.85
2022-12-02T15:23:13.763Z,21.98
2022-12-02T15:26:16.270Z,21.50
2022-12-02T15:29:19.249Z,21.62
2022-12-02T15:32:21.799Z,21.08
2022-12-02T15:35:24.773Z,21.67
2022-12-02T15:38:29.674Z,21.95
2022-12-02T15:41:32.842Z,22.37
2022-12-02T15:44:35.316Z,22.00
2022-12-02T15:47:38.003Z,22.02
2022-12-02T15:50:40.464Z,21.98
2022-12-02T15:53:45.812Z,21.73
2022-12-02T15:56:54.175Z,21.80
2022-12-02T15:59:57.295Z,21.87
2022-12-02T16:02:59.918Z,22.42
2022-12-02T16:06:02.836Z,22.27
2022-12-02T16:09:05.381Z,22.42
2022-12-02T16:12:08.293Z,22.27
2022-12-02T16:15:10.878Z,22.00
2022-12-02T16:18:13.652Z,22.50
2022-12-02T16:21:17.602Z,22.17
2022-12-02T16:24:20.462Z,22.27
2022-12-02T16:27:23.007Z,23.70
2022-12-02T16:30:25.919Z,22.37
2022-12-02T16:33:28.337Z,24.95
2022-12-02T16:36:31.227Z,23.73
